createdAt,value
2018-10-19T00:01:44.470Z,4.90
2018-10-19T00:04:12.837Z,4.90
2018-10-19T00:06:41.706Z,4.90
2018-10-19T00:09:11.099Z,4.90
2018-10-19T00:11:40.061Z,4.90
2018-10-19T00:14:08.418Z,4.80
2018-10-19T00:16:36.666Z,4.80
2018-10-19T00:19:05.662Z,4.80
2018-10-19T00:21:33.879Z,4.80
2018-10-19T00:24:02.340Z,4.80
2018-10-19T00:26:30.662Z,4.80
2018-10-19T00:28:58.815Z,4.80
2018-10-19T00:31:26.970Z,4.80
2018-10-19T00:33:55.070Z,4.80
2018-10-19T00:36:23.201Z,4.80
2018-10-19T00:38:51.304Z,4.80
2018-10-19T00:41:20.079Z,4.80
2018-10-19T00:43:48.929Z,4.80
2018-10-19T00:46:17.117Z,4.80
2018-10-19T00:48:45.808Z,4.80
2018-10-19T00:51:14.878Z,4.70
2018-10-19T00:53:42.887Z,4.80
2018-10-19T00:56:11.113Z,4.70
2018-10-19T00:58:40.146Z,4.70
2018-10-19T01:01:08.916Z,4.70
2018-10-19T01:03:37.041Z,4.70
2018-10-19T01:06:05.394Z,4.60
2018-10-19T01:08:33.601Z,4.60
2018-10-19T01:11:01.741Z,4.60
2018-10-19T01:13:30.051Z,4.50
2018-10-19T01:15:58.231Z,4.50
2018-10-19T01:18:26.318Z,4.50
2018-10-19T01:20:54.519Z,4.50
2018-10-19T01:23:22.545Z,4.50
2018-10-19T01:25:50.796Z,4.40
2018-10-19T01:28:19.009Z,4.40
2018-10-19T01:30:47.170Z,4.40
2018-10-19T01:33:15.580Z,4.30
2018-10-19T01:38:43.241Z,4.30
2018-10-19T01:41:11.455Z,4.30
2018-10-19T01:43:39.546Z,4.30
2018-10-19T01:46:08.045Z,4.30
2018-10-19T01:48:36.254Z,4.30
2018-10-19T01:51:04.408Z,4.30
2018-10-19T01:53:33.046Z,4.30
2018-10-19T01:56:01.329Z,4.20
2018-10-19T01:58:29.404Z,4.20
2018-10-19T02:00:58.002Z,4.20
2018-10-19T02:03:26.780Z,4.10
2018-10-19T02:05:55.003Z,4.10
2018-10-19T02:08:23.121Z,4.10
2018-10-19T02:10:51.374Z,4.10
2018-10-19T02:13:19.469Z,4.10
2018-10-19T02:15:47.733Z,4.10
2018-10-19T02:18:15.821Z,4.10
2018-10-19T02:20:43.985Z,4.10
2018-10-19T02:23:12.901Z,4.10
2018-10-19T02:25:40.901Z,4.10
2018-10-19T02:28:09.018Z,4.10
2018-10-19T02:30:37.410Z,4.10
2018-10-19T02:33:05.782Z,4.20
2018-10-19T02:35:33.857Z,4.10
2018-10-19T02:38:02.671Z,4.10
2018-10-19T02:40:30.902Z,4.10
2018-10-19T02:42:59.958Z,4.10
2018-10-19T02:45:28.186Z,4.10
2018-10-19T02:47:56.421Z,4.10
2018-10-19T02:50:24.537Z,4.10
2018-10-19T02:55:45.733Z,4.20
2018-10-19T02:58:13.870Z,4.20
2018-10-19T03:00:42.582Z,4.20
2018-10-19T03:03:10.856Z,4.20
2018-10-19T03:05:39.330Z,4.20
2018-10-19T03:08:07.670Z,4.30
2018-10-19T03:10:36.198Z,4.30
2018-10-19T03:13:04.498Z,4.20
2018-10-19T03:15:33.057Z,4.20
2018-10-19T03:18:01.433Z,4.20
2018-10-19T03:20:29.833Z,4.20
2018-10-19T03:22:58.063Z,4.30
2018-10-19T03:25:26.298Z,4.30
2018-10-19T03:27:55.018Z,4.30
2018-10-19T03:30:23.468Z,4.30
2018-10-19T03:32:51.613Z,4.30
2018-10-19T03:35:19.766Z,4.30
2018-10-19T03:37:47.988Z,4.30
2018-10-19T03:40:18.140Z,4.20
2018-10-19T03:42:47.246Z,4.20
2018-10-19T03:45:15.706Z,4.20
2018-10-19T03:47:43.713Z,4.20
2018-10-19T03:50:11.963Z,4.20
2018-10-19T03:52:40.385Z,4.20
2018-10-19T03:55:09.602Z,4.10
2018-10-19T03:57:37.960Z,4.10
2018-10-19T04:00:06.152Z,4.10
2018-10-19T04:02:34.286Z,4.10
2018-10-19T04:05:03.635Z,4.00
2018-10-19T04:07:31.809Z,4.00
2018-10-19T04:09:59.976Z,4.00
2018-10-19T04:12:28.188Z,3.90
2018-10-19T04:14:56.482Z,3.90
2018-10-19T04:17:24.806Z,4.00
2018-10-19T04:19:58.181Z,4.00
2018-10-19T04:22:26.346Z,4.00
2018-10-19T04:24:55.019Z,4.10
2018-10-19T04:27:23.247Z,4.10
2018-10-19T04:29:51.418Z,4.10
2018-10-19T04:32:20.070Z,4.10
2018-10-19T04:34:49.021Z,4.10
2018-10-19T04:37:17.547Z,4.10
2018-10-19T04:39:46.962Z,4.20
2018-10-19T04:42:15.852Z,4.20
2018-10-19T04:44:44.043Z,4.20
2018-10-19T04:47:12.265Z,4.20
2018-10-19T04:49:40.371Z,4.10
2018-10-19T04:52:08.554Z,4.10
2018-10-19T04:54:36.829Z,4.10
2018-10-19T04:57:05.612Z,4.10
2018-10-19T04:59:33.773Z,4.10
2018-10-19T05:02:01.882Z,4.20
2018-10-19T05:04:30.072Z,4.20
2018-10-19T05:06:58.850Z,4.30
2018-10-19T05:09:28.766Z,4.30
2018-10-19T05:11:57.093Z,4.40
2018-10-19T05:14:25.302Z,4.40
2018-10-19T05:16:53.736Z,4.40
2018-10-19T05:19:23.066Z,4.40
2018-10-19T05:21:51.186Z,4.50
2018-10-19T05:24:19.473Z,4.50
2018-10-19T05:26:47.782Z,4.60
2018-10-19T05:29:16.726Z,4.70
2018-10-19T05:31:44.853Z,4.70
2018-10-19T05:34:13.571Z,4.70
2018-10-19T05:36:41.766Z,4.80
2018-10-19T05:39:10.293Z,4.80
2018-10-19T05:41:38.968Z,4.90
2018-10-19T05:44:07.299Z,4.90
2018-10-19T05:46:35.462Z,4.90
2018-10-19T05:49:04.013Z,4.90
2018-10-19T05:51:32.215Z,4.90
2018-10-19T05:54:00.622Z,4.90
2018-10-19T05:56:29.788Z,4.80
2018-10-19T05:58:58.051Z,4.70
2018-10-19T06:01:26.394Z,4.70
2018-10-19T06:03:54.609Z,4.70
2018-10-19T06:06:23.458Z,4.70
2018-10-19T06:08:52.345Z,4.60
2018-10-19T06:11:21.359Z,4.60
2018-10-19T06:13:49.889Z,4.60
2018-10-19T06:16:18.510Z,4.50
2018-10-19T06:18:47.117Z,4.60
2018-10-19T06:21:15.401Z,4.50
2018-10-19T06:23:43.702Z,4.60
2018-10-19T06:26:11.921Z,4.60
2018-10-19T06:28:40.024Z,4.60
2018-10-19T06:31:08.191Z,4.60
2018-10-19T06:33:36.369Z,4.50
2018-10-19T06:36:04.582Z,4.50
2018-10-19T06:38:32.701Z,4.50
2018-10-19T06:41:01.359Z,4.50
2018-10-19T06:43:29.484Z,4.50
2018-10-19T06:45:58.157Z,4.50
2018-10-19T06:48:26.616Z,4.40
2018-10-19T06:50:55.674Z,4.40
2018-10-19T06:53:23.970Z,4.50
2018-10-19T06:55:53.015Z,4.50
2018-10-19T06:58:21.725Z,4.60
2018-10-19T07:00:49.841Z,4.70
2018-10-19T07:03:18.577Z,4.80
2018-10-19T07:05:47.811Z,4.90
2018-10-19T07:08:15.962Z,5.00
2018-10-19T07:10:44.850Z,5.10
2018-10-19T07:13:13.683Z,5.20
2018-10-19T07:15:41.916Z,5.40
2018-10-19T07:18:10.065Z,5.60
2018-10-19T07:20:39.228Z,5.80
2018-10-19T07:23:08.082Z,6.00
2018-10-19T07:25:36.281Z,6.20
2018-10-19T07:28:04.746Z,6.40
2018-10-19T07:30:33.675Z,6.60
2018-10-19T07:33:02.055Z,6.80
2018-10-19T07:35:30.978Z,7.00
2018-10-19T07:37:59.138Z,7.10
2018-10-19T07:40:27.826Z,7.10
2018-10-19T07:42:55.965Z,7.10
2018-10-19T07:45:24.498Z,7.00
2018-10-19T07:47:52.821Z,7.00
2018-10-19T07:50:22.044Z,6.90
2018-10-19T07:52:50.963Z,6.90
2018-10-19T07:55:19.146Z,6.90
2018-10-19T07:57:47.273Z,7.00
2018-10-19T08:00:15.873Z,7.10
2018-10-19T08:02:44.145Z,7.20
2018-10-19T08:05:12.608Z,7.30
2018-10-19T08:07:40.881Z,7.40
2018-10-19T08:10:09.695Z,7.40
2018-10-19T08:12:37.897Z,7.50
2018-10-19T08:15:09.346Z,7.60
2018-10-19T08:17:37.690Z,7.70
2018-10-19T08:20:07.212Z,7.80
2018-10-19T08:22:35.761Z,7.90
2018-10-19T08:25:04.013Z,8.00
2018-10-19T08:27:32.262Z,8.00
2018-10-19T08:30:00.615Z,8.10
2018-10-19T08:32:28.762Z,8.20
2018-10-19T08:34:57.274Z,8.20
2018-10-19T08:37:25.489Z,8.30
2018-10-19T08:39:53.677Z,8.30
2018-10-19T08:42:22.126Z,8.50
2018-10-19T08:44:50.881Z,8.60
2018-10-19T08:47:19.081Z,8.70
2018-10-19T08:49:47.213Z,8.70
2018-10-19T08:52:15.522Z,8.80
2018-10-19T08:54:43.776Z,9.00
2018-10-19T08:57:12.011Z,9.00
2018-10-19T08:59:40.666Z,9.20
2018-10-19T09:02:09.538Z,9.40
2018-10-19T09:04:37.696Z,9.60
2018-10-19T09:07:05.965Z,10.10
2018-10-19T09:09:34.504Z,11.10
2018-10-19T09:12:02.956Z,12.90
2018-10-19T09:14:42.987Z,14.40
2018-10-19T09:17:11.779Z,15.90
2018-10-19T09:19:40.394Z,17.00
2018-10-19T09:22:08.936Z,18.20
2018-10-19T09:24:37.058Z,19.10
2018-10-19T09:27:06.058Z,19.60
2018-10-19T09:29:34.437Z,19.40
2018-10-19T09:32:03.399Z,19.70
2018-10-19T09:34:31.514Z,20.60
2018-10-19T09:37:00.452Z,21.30
2018-10-19T09:39:28.554Z,21.40
2018-10-19T09:41:56.747Z,21.70
2018-10-19T09:44:24.874Z,22.20
2018-10-19T09:46:53.109Z,21.50
2018-10-19T09:49:21.331Z,20.90
2018-10-19T09:51:49.567Z,20.70
2018-10-19T09:54:18.098Z,21.00
2018-10-19T09:56:46.369Z,21.40
2018-10-19T09:59:14.630Z,21.70
2018-10-19T10:01:42.877Z,22.30
2018-10-19T10:04:11.418Z,21.80
2018-10-19T10:06:39.553Z,21.30
2018-10-19T10:09:10.273Z,22.90
2018-10-19T10:11:38.376Z,22.50
2018-10-19T10:14:06.918Z,21.70
2018-10-19T10:16:35.957Z,22.50
2018-10-19T10:19:04.619Z,22.90
2018-10-19T10:21:32.925Z,22.90
2018-10-19T10:24:01.748Z,22.50
2018-10-19T10:26:29.885Z,23.70
2018-10-19T10:28:58.365Z,24.00
2018-10-19T10:31:26.537Z,23.40
2018-10-19T10:33:54.700Z,21.50
2018-10-19T10:36:23.504Z,20.50
2018-10-19T10:38:51.770Z,19.00
2018-10-19T10:41:19.861Z,17.20
2018-10-19T10:43:48.311Z,16.00
2018-10-19T10:46:16.821Z,15.60
2018-10-19T10:48:44.866Z,16.60
2018-10-19T10:51:13.469Z,18.00
2018-10-19T10:53:41.650Z,18.70
2018-10-19T10:56:10.049Z,19.80
2018-10-19T10:58:38.185Z,19.40
2018-10-19T11:01:06.376Z,20.40
2018-10-19T11:03:34.558Z,21.10
2018-10-19T11:06:03.107Z,21.80
2018-10-19T11:08:31.312Z,22.70
2018-10-19T11:11:08.362Z,23.40
2018-10-19T11:13:36.981Z,23.70
2018-10-19T11:16:05.619Z,23.40
2018-10-19T11:18:33.778Z,23.20
2018-10-19T11:21:02.088Z,23.20
2018-10-19T11:23:30.796Z,22.10
2018-10-19T11:25:58.941Z,22.60
2018-10-19T11:28:27.241Z,21.70
2018-10-19T11:30:55.436Z,20.00
2018-10-19T11:33:23.582Z,19.60
2018-10-19T11:35:51.682Z,18.10
2018-10-19T11:38:20.770Z,16.30
2018-10-19T11:40:49.037Z,15.00
2018-10-19T11:43:17.282Z,14.10
2018-10-19T11:45:45.428Z,13.50
2018-10-19T11:48:13.545Z,13.30
2018-10-19T11:50:41.735Z,13.10
2018-10-19T11:53:09.898Z,13.40
2018-10-19T11:55:38.622Z,13.50
2018-10-19T11:58:06.798Z,13.30
2018-10-19T12:00:34.905Z,13.20
2018-10-19T12:03:03.003Z,12.90
2018-10-19T12:05:31.857Z,12.70
2018-10-19T12:08:01.029Z,12.90
2018-10-19T12:10:29.447Z,13.20
2018-10-19T12:12:57.613Z,13.60
2018-10-19T12:15:25.736Z,13.80
2018-10-19T12:17:53.910Z,13.70
2018-10-19T12:20:22.084Z,13.90
2018-10-19T12:22:50.689Z,14.00
2018-10-19T12:25:19.093Z,14.10
2018-10-19T12:27:47.346Z,14.10
2018-10-19T12:30:15.482Z,14.00
2018-10-19T12:32:43.930Z,13.90
2018-10-19T12:35:13.498Z,13.70
2018-10-19T12:37:42.050Z,13.50
2018-10-19T12:40:11.153Z,13.30
2018-10-19T12:42:39.454Z,13.00
2018-10-19T12:45:17.768Z,12.70
2018-10-19T12:47:45.855Z,12.50
2018-10-19T12:50:14.017Z,12.40
2018-10-19T12:52:42.362Z,12.40
2018-10-19T12:55:10.571Z,12.40
2018-10-19T12:57:38.788Z,12.50
2018-10-19T13:00:07.511Z,12.50
2018-10-19T13:02:35.851Z,12.60
2018-10-19T13:05:04.253Z,12.70
2018-10-19T13:07:32.749Z,12.80
2018-10-19T13:10:02.197Z,12.90
2018-10-19T13:12:30.319Z,12.90
2018-10-19T13:14:58.843Z,12.60
2018-10-19T13:17:27.036Z,12.70
2018-10-19T13:19:55.174Z,12.90
2018-10-19T13:22:23.353Z,13.00
2018-10-19T13:24:51.458Z,12.80
2018-10-19T13:27:19.774Z,12.90
2018-10-19T13:29:48.097Z,13.00
2018-10-19T13:32:16.348Z,12.90
2018-10-19T13:34:45.134Z,13.00
2018-10-19T13:37:13.314Z,13.00
2018-10-19T13:39:41.808Z,13.20
2018-10-19T13:42:09.981Z,13.30
2018-10-19T13:44:38.082Z,13.20
2018-10-19T13:47:06.436Z,12.80
2018-10-19T13:49:34.558Z,12.90
2018-10-19T13:52:02.832Z,12.90
2018-10-19T13:54:31.337Z,12.80
2018-10-19T13:56:59.674Z,12.70
2018-10-19T13:59:27.935Z,12.60
2018-10-19T14:01:56.077Z,12.50
2018-10-19T14:04:24.240Z,12.40
2018-10-19T14:06:52.586Z,12.20
2018-10-19T14:09:21.810Z,12.10
2018-10-19T14:11:51.341Z,11.90
2018-10-19T14:14:19.491Z,11.80
2018-10-19T14:16:47.691Z,11.60
2018-10-19T14:19:16.143Z,11.50
2018-10-19T14:21:44.557Z,11.50
2018-10-19T14:24:12.718Z,11.30
2018-10-19T14:26:40.994Z,11.20
2018-10-19T14:29:13.266Z,11.10
2018-10-19T14:31:42.004Z,11.10
2018-10-19T14:34:11.528Z,11.10
2018-10-19T14:36:39.955Z,11.00
2018-10-19T14:39:08.202Z,10.90
2018-10-19T14:41:36.257Z,10.90
2018-10-19T14:44:04.645Z,10.90
2018-10-19T14:46:32.836Z,10.80
2018-10-19T14:49:01.166Z,10.70
2018-10-19T14:51:29.997Z,10.60
2018-10-19T14:53:58.353Z,10.60
2018-10-19T14:56:26.538Z,10.60
2018-10-19T14:58:54.870Z,10.60
2018-10-19T15:01:23.622Z,10.60
2018-10-19T15:03:51.811Z,10.70
2018-10-19T15:06:20.046Z,10.80
2018-10-19T15:08:48.369Z,10.70
2018-10-19T15:11:17.373Z,10.80
2018-10-19T15:14:16.162Z,10.80
2018-10-19T15:16:44.339Z,10.70
2018-10-19T15:19:12.508Z,10.60
2018-10-19T15:21:40.962Z,10.60
2018-10-19T15:24:10.141Z,10.60
2018-10-19T15:26:38.858Z,10.50
2018-10-19T15:29:06.994Z,10.50
2018-10-19T15:31:35.047Z,10.40
2018-10-19T15:34:04.014Z,10.40
2018-10-19T15:36:32.308Z,10.40
2018-10-19T15:39:00.699Z,10.30
2018-10-19T15:41:28.854Z,10.20
2018-10-19T15:43:58.201Z,10.10
2018-10-19T15:46:26.453Z,10.10
2018-10-19T15:48:55.592Z,10.00
2018-10-19T15:51:23.782Z,10.00
2018-10-19T15:53:51.965Z,9.90
2018-10-19T15:56:20.243Z,9.80
2018-10-19T15:58:49.305Z,9.70
2018-10-19T16:01:17.660Z,9.60
2018-10-19T16:03:46.446Z,9.50
2018-10-19T16:06:14.695Z,9.40
2018-10-19T16:08:42.876Z,9.20
2018-10-19T16:11:11.021Z,9.10
2018-10-19T16:13:39.865Z,9.10
2018-10-19T16:16:08.473Z,9.00
2018-10-19T16:18:36.785Z,8.80
2018-10-19T16:21:05.858Z,8.70
2018-10-19T16:23:34.136Z,8.50
2018-10-19T16:26:02.437Z,8.40
2018-10-19T16:28:30.733Z,8.30
2018-10-19T16:30:58.844Z,8.20
2018-10-19T16:33:27.289Z,8.20
2018-10-19T16:35:55.968Z,8.20
2018-10-19T16:38:24.482Z,8.10
2018-10-19T16:40:53.154Z,7.90
2018-10-19T16:43:21.503Z,7.80
2018-10-19T16:45:49.714Z,7.70
2018-10-19T16:48:17.971Z,7.80
2018-10-19T16:50:46.182Z,7.80
2018-10-19T16:53:14.397Z,7.80
2018-10-19T16:55:42.761Z,7.70
2018-10-19T16:58:10.980Z,7.60
2018-10-19T17:00:39.066Z,7.60
2018-10-19T17:03:07.910Z,7.50
2018-10-19T17:05:36.081Z,7.40
2018-10-19T17:08:04.449Z,7.30
2018-10-19T17:10:32.891Z,7.40
2018-10-19T17:13:01.913Z,7.40
2018-10-19T17:15:30.367Z,7.50
2018-10-19T17:17:58.805Z,7.50
2018-10-19T17:20:26.925Z,7.50
2018-10-19T17:22:55.814Z,7.50
2018-10-19T17:25:24.319Z,7.40
2018-10-19T17:27:52.822Z,7.30
2018-10-19T17:30:21.185Z,7.20
2018-10-19T17:32:49.606Z,7.00
2018-10-19T17:35:17.841Z,6.90
2018-10-19T17:37:45.901Z,6.70
2018-10-19T17:40:14.289Z,6.60
2018-10-19T17:42:42.781Z,6.50
2018-10-19T17:45:11.212Z,6.40
2018-10-19T17:47:42.281Z,6.30
2018-10-19T17:50:10.631Z,6.30
2018-10-19T17:52:38.910Z,6.20
2018-10-19T17:55:09.656Z,6.20
2018-10-19T17:57:38.164Z,6.10
2018-10-19T18:00:07.626Z,6.00
2018-10-19T18:02:35.702Z,5.90
2018-10-19T18:05:03.965Z,5.90
2018-10-19T18:07:32.141Z,5.90
2018-10-19T18:10:00.234Z,5.90
2018-10-19T18:12:28.469Z,5.90
2018-10-19T18:14:56.640Z,5.80
2018-10-19T18:17:24.774Z,5.80
2018-10-19T18:19:52.970Z,5.70
2018-10-19T18:22:21.372Z,5.60
2018-10-19T18:24:49.413Z,5.50
2018-10-19T18:27:17.588Z,5.40
2018-10-19T18:29:45.927Z,5.40
2018-10-19T18:32:15.031Z,5.30
2018-10-19T18:34:43.267Z,5.30
2018-10-19T18:37:11.446Z,5.20
2018-10-19T18:39:39.538Z,5.20
2018-10-19T18:42:07.799Z,5.20
2018-10-19T18:44:35.953Z,5.20
2018-10-19T18:47:04.636Z,5.10
2018-10-19T18:49:32.873Z,5.20
2018-10-19T18:52:01.045Z,5.20
2018-10-19T18:54:29.413Z,5.20
2018-10-19T18:56:57.502Z,5.20
2018-10-19T18:59:25.707Z,5.10
2018-10-19T19:01:53.940Z,5.00
2018-10-19T19:04:22.282Z,5.00
2018-10-19T19:06:50.470Z,5.00
2018-10-19T19:09:18.922Z,5.00
2018-10-19T19:11:47.122Z,4.90
2018-10-19T19:14:15.540Z,5.00
2018-10-19T19:16:43.567Z,5.50
2018-10-19T19:19:11.794Z,5.10
2018-10-19T19:21:40.044Z,5.20
2018-10-19T19:24:13.565Z,5.30
2018-10-19T19:26:41.849Z,5.30
2018-10-19T19:29:10.104Z,5.30
2018-10-19T19:31:38.153Z,5.20
2018-10-19T19:34:12.077Z,5.10
2018-10-19T19:36:40.316Z,4.90
2018-10-19T19:39:09.045Z,4.90
2018-10-19T19:41:42.848Z,4.90
2018-10-19T19:44:11.325Z,4.80
2018-10-19T19:46:39.461Z,4.70
2018-10-19T19:49:13.946Z,4.70
2018-10-19T19:51:42.318Z,4.60
2018-10-19T19:54:10.518Z,4.60
2018-10-19T19:56:39.075Z,4.60
2018-10-19T19:59:07.290Z,4.60
2018-10-19T20:01:35.885Z,4.50
2018-10-19T20:04:04.735Z,4.50
2018-10-19T20:06:33.416Z,4.70
2018-10-19T20:09:01.503Z,4.90
2018-10-19T20:11:30.152Z,4.90
2018-10-19T20:13:58.900Z,4.70
2018-10-19T20:16:27.138Z,4.60
2018-10-19T20:18:55.725Z,4.50
2018-10-19T20:21:23.945Z,4.60
2018-10-19T20:23:52.225Z,4.70
2018-10-19T20:26:21.265Z,4.80
2018-10-19T20:28:49.942Z,4.70
2018-10-19T20:31:18.110Z,4.60
2018-10-19T20:33:46.372Z,4.40
2018-10-19T20:36:14.619Z,4.20
2018-10-19T20:38:43.486Z,4.10
2018-10-19T20:41:11.714Z,4.00
2018-10-19T20:43:39.946Z,3.90
2018-10-19T20:46:08.773Z,3.90
2018-10-19T20:48:37.230Z,3.80
2018-10-19T20:51:05.659Z,3.80
2018-10-19T20:53:34.905Z,3.80
2018-10-19T20:56:03.080Z,3.80
2018-10-19T20:58:31.717Z,3.80
2018-10-19T21:00:59.962Z,3.80
2018-10-19T21:03:28.501Z,3.90
2018-10-19T21:05:56.971Z,4.00
2018-10-19T21:08:26.435Z,4.10
2018-10-19T21:10:54.760Z,4.20
2018-10-19T21:13:23.796Z,4.30
2018-10-19T21:15:51.893Z,4.30
2018-10-19T21:18:25.705Z,4.40
2018-10-19T21:20:53.889Z,4.40
2018-10-19T21:23:22.620Z,4.60
2018-10-19T21:25:51.078Z,4.70
2018-10-19T21:28:19.285Z,4.80
2018-10-19T21:30:47.595Z,4.80
2018-10-19T21:33:16.312Z,4.90
2018-10-19T21:35:44.525Z,4.90
2018-10-19T21:38:12.979Z,4.90
2018-10-19T21:40:41.137Z,4.90
2018-10-19T21:43:09.448Z,5.00
2018-10-19T21:45:37.557Z,5.10
2018-10-19T21:48:05.842Z,5.10
2018-10-19T21:50:33.938Z,5.10
2018-10-19T21:53:02.423Z,5.10
2018-10-19T21:55:31.022Z,5.10
2018-10-19T21:57:59.168Z,5.20
2018-10-19T22:00:27.553Z,5.20
2018-10-19T22:02:55.843Z,5.30
2018-10-19T22:05:23.985Z,5.30
2018-10-19T22:07:52.513Z,5.40
2018-10-19T22:15:14.049Z,5.30
2018-10-19T22:17:42.473Z,5.00
2018-10-19T22:20:11.023Z,4.90
2018-10-19T22:22:40.046Z,4.80
2018-10-19T22:25:08.325Z,4.80
2018-10-19T22:27:36.425Z,4.80
2018-10-19T22:30:05.747Z,4.70
2018-10-19T22:32:34.425Z,4.70
2018-10-19T22:35:02.964Z,4.70
2018-10-19T22:37:32.182Z,4.60
2018-10-19T22:40:01.027Z,4.50
2018-10-19T22:42:29.682Z,4.40
2018-10-19T22:44:58.366Z,4.40
2018-10-19T22:47:26.522Z,4.40
2018-10-19T22:49:54.833Z,4.50
2018-10-19T22:52:23.206Z,4.50
2018-10-19T22:54:52.020Z,4.50
2018-10-19T22:57:20.827Z,4.60
2018-10-19T22:59:49.381Z,4.60
2018-10-19T23:02:17.521Z,4.50
2018-10-19T23:04:46.419Z,4.60
2018-10-19T23:07:14.772Z,4.70
2018-10-19T23:09:43.655Z,4.70
2018-10-19T23:12:12.008Z,4.90
2018-10-19T23:14:40.141Z,4.90
2018-10-19T23:17:08.455Z,5.00
2018-10-19T23:19:36.863Z,5.10
2018-10-19T23:22:05.161Z,5.20
2018-10-19T23:24:34.002Z,5.30
2018-10-19T23:27:02.258Z,5.30
2018-10-19T23:29:30.705Z,5.40
2018-10-19T23:31:58.858Z,5.50
2018-10-19T23:34:26.985Z,5.50
2018-10-19T23:36:55.920Z,5.50
2018-10-19T23:39:24.738Z,5.50
2018-10-19T23:41:53.049Z,5.50
2018-10-19T23:44:21.497Z,5.50
2018-10-19T23:46:49.664Z,5.50
2018-10-19T23:49:18.799Z,5.50
2018-10-19T23:51:47.003Z,5.60
2018-10-19T23:54:16.261Z,5.60
2018-10-19T23:56:44.445Z,5.70
2018-10-19T23:59:12.967Z,5.70
